Terminal Aerodrome Forecast
Issued by NWS

Home | Current Version | Previous Version | Text Only | Print | Product List | Glossary On
Versions: 1 2 3 4 5 6 7 8 9 10 11 12
000
FTUS44 KEPZ 281700
TAFDMN
TAF
KDMN 281722Z 2818/0118 20010KT P6SM FEW060
     FM282000 24020G30KT P6SM BKN070
     FM010200 25008KT P6SM FEW050 SCT250=

USA.gov is the U.S. government's official web portal to all federal, state and local government web resources and services.